createdAt,value
2023-04-29T00:00:56.284Z,10.50
2023-04-29T00:03:23.290Z,10.00
2023-04-29T00:05:50.354Z,10.05
2023-04-29T00:08:17.485Z,9.98
2023-04-29T00:10:44.206Z,10.15
2023-04-29T00:13:12.173Z,9.88
2023-04-29T00:15:39.791Z,9.75
2023-04-29T00:18:06.590Z,9.90
2023-04-29T00:20:33.376Z,9.45
2023-04-29T00:23:00.121Z,9.10
2023-04-29T00:25:27.203Z,9.40
2023-04-29T00:27:53.929Z,10.27
2023-04-29T00:30:20.796Z,9.43
2023-04-29T00:32:47.981Z,8.13
2023-04-29T00:35:14.727Z,8.55
2023-04-29T00:37:41.471Z,7.85
2023-04-29T00:40:08.919Z,8.70
2023-04-29T00:42:35.982Z,8.80
2023-04-29T00:45:02.970Z,9.23
2023-04-29T00:47:29.798Z,10.35
2023-04-29T00:49:56.763Z,8.98
2023-04-29T00:52:23.872Z,8.60
2023-04-29T00:54:51.860Z,8.60
2023-04-29T00:57:20.154Z,8.98
2023-04-29T00:59:47.348Z,8.50
2023-04-29T01:02:14.233Z,9.18
2023-04-29T01:04:41.129Z,8.25
2023-04-29T01:07:24.103Z,7.90
2023-04-29T01:10:07.452Z,8.90
2023-04-29T01:12:37.263Z,9.55
2023-04-29T01:15:09.855Z,9.82
2023-04-29T01:17:41.894Z,9.32
2023-04-29T01:20:10.569Z,8.52
2023-04-29T01:22:39.438Z,10.25
2023-04-29T01:25:07.281Z,10.02
2023-04-29T01:27:42.675Z,11.50
2023-04-29T01:30:39.668Z,10.10
2023-04-29T01:33:09.373Z,10.27
2023-04-29T01:35:56.433Z,11.00
2023-04-29T01:38:35.331Z,10.50
2023-04-29T01:41:04.871Z,11.05
2023-04-29T01:43:34.614Z,12.23
2023-04-29T01:46:05.060Z,13.23
2023-04-29T01:48:32.532Z,11.63
2023-04-29T01:50:59.369Z,11.88
2023-04-29T01:53:26.393Z,11.38
2023-04-29T01:55:53.156Z,11.57
2023-04-29T01:58:19.989Z,11.60
2023-04-29T02:00:46.805Z,11.23
2023-04-29T02:03:13.846Z,12.38
2023-04-29T02:05:40.781Z,11.63
2023-04-29T02:08:10.620Z,12.65
2023-04-29T02:10:37.545Z,12.07
2023-04-29T02:13:04.317Z,10.88
2023-04-29T02:15:31.156Z,10.57
2023-04-29T02:17:57.962Z,9.80
2023-04-29T02:20:24.805Z,10.07
2023-04-29T02:22:51.783Z,9.80
2023-04-29T02:25:18.928Z,10.30
2023-04-29T02:27:45.717Z,11.10
2023-04-29T02:30:12.577Z,11.80
2023-04-29T02:32:39.660Z,11.15
2023-04-29T02:35:07.656Z,11.27
2023-04-29T02:37:35.008Z,11.13
2023-04-29T02:40:02.427Z,10.98
2023-04-29T02:42:29.551Z,10.73
2023-04-29T02:44:56.591Z,10.95
2023-04-29T02:47:23.536Z,11.50
2023-04-29T02:49:50.690Z,11.07
2023-04-29T02:52:17.594Z,11.43
2023-04-29T02:54:44.641Z,12.25
2023-04-29T02:57:11.410Z,10.95
2023-04-29T02:59:38.307Z,10.43
2023-04-29T03:02:05.345Z,10.75
2023-04-29T03:04:32.089Z,9.85
2023-04-29T03:06:59.065Z,10.70
2023-04-29T03:09:25.890Z,10.13
2023-04-29T03:11:53.494Z,9.93
2023-04-29T03:14:20.260Z,9.95
2023-04-29T03:16:47.080Z,9.80
2023-04-29T03:19:13.858Z,10.02
2023-04-29T03:21:40.691Z,10.18
2023-04-29T03:24:07.496Z,10.20
2023-04-29T03:26:34.309Z,10.95
2023-04-29T03:29:01.112Z,10.70
2023-04-29T03:31:30.920Z,9.77
2023-04-29T03:33:57.707Z,10.40
2023-04-29T03:36:24.465Z,10.43
2023-04-29T03:38:51.185Z,10.43
2023-04-29T03:41:18.301Z,8.95
2023-04-29T03:43:45.265Z,10.10
2023-04-29T03:46:12.121Z,10.23
2023-04-29T03:48:38.998Z,9.35
2023-04-29T03:51:06.025Z,10.10
2023-04-29T03:53:33.221Z,9.93
2023-04-29T03:55:59.966Z,10.63
2023-04-29T03:58:26.879Z,9.80
2023-04-29T04:00:53.733Z,9.88
2023-04-29T04:03:20.824Z,9.80
2023-04-29T04:05:47.722Z,9.43
2023-04-29T04:08:14.466Z,9.52
2023-04-29T04:10:41.208Z,9.40
2023-04-29T04:13:08.072Z,9.73
2023-04-29T04:15:34.828Z,9.02
2023-04-29T04:18:01.805Z,9.95
2023-04-29T04:20:28.651Z,10.43
2023-04-29T04:22:55.662Z,9.48
2023-04-29T04:25:22.360Z,9.40
2023-04-29T04:27:49.203Z,10.02
2023-04-29T04:30:16.413Z,9.70
2023-04-29T04:32:43.154Z,9.60
2023-04-29T04:35:10.000Z,10.13
2023-04-29T04:37:36.825Z,10.27
2023-04-29T04:40:03.926Z,9.88
2023-04-29T04:42:30.906Z,10.00
2023-04-29T04:44:57.877Z,9.57
2023-04-29T04:47:24.798Z,9.82
2023-04-29T04:49:53.464Z,9.63
2023-04-29T04:52:22.059Z,9.20
2023-04-29T04:54:48.870Z,10.57
2023-04-29T04:57:15.617Z,9.55
2023-04-29T04:59:42.910Z,10.05
2023-04-29T05:02:09.734Z,9.90
2023-04-29T05:04:36.478Z,10.23
2023-04-29T05:07:03.240Z,10.18
2023-04-29T05:09:30.240Z,9.63
2023-04-29T05:11:59.423Z,10.25
2023-04-29T05:14:26.920Z,10.43
2023-04-29T05:16:53.803Z,9.93
2023-04-29T05:19:21.012Z,10.60
2023-04-29T05:21:48.137Z,9.38
2023-04-29T05:24:15.989Z,8.75
2023-04-29T05:26:44.324Z,8.98
2023-04-29T05:29:12.442Z,9.13
2023-04-29T05:31:39.250Z,8.38
2023-04-29T05:34:06.144Z,8.70
2023-04-29T05:36:33.017Z,8.68
2023-04-29T05:39:00.017Z,7.80
2023-04-29T05:41:27.105Z,8.52
2023-04-29T05:43:54.226Z,8.40
2023-04-29T05:46:21.033Z,7.68
2023-04-29T05:48:47.787Z,7.80
2023-04-29T05:51:14.762Z,8.40
2023-04-29T05:53:41.594Z,8.10
2023-04-29T05:56:08.725Z,8.48
2023-04-29T05:58:36.057Z,8.77
2023-04-29T06:01:03.471Z,7.40
2023-04-29T06:03:31.573Z,7.70
2023-04-29T06:05:59.018Z,8.30
2023-04-29T06:08:25.889Z,8.27
2023-04-29T06:10:52.690Z,8.40
2023-04-29T06:13:19.543Z,8.02
2023-04-29T06:15:46.626Z,7.72
2023-04-29T06:18:13.491Z,8.25
2023-04-29T06:20:40.193Z,7.00
2023-04-29T06:23:07.515Z,7.65
2023-04-29T06:25:34.365Z,6.53
2023-04-29T06:28:01.311Z,6.70
2023-04-29T06:30:28.198Z,6.93
2023-04-29T06:32:55.089Z,7.50
2023-04-29T06:35:21.937Z,7.13
2023-04-29T06:37:48.871Z,7.45
2023-04-29T06:40:15.793Z,7.50
2023-04-29T06:42:43.915Z,8.05
2023-04-29T06:45:11.327Z,7.38
2023-04-29T06:47:38.375Z,8.30
2023-04-29T06:50:05.488Z,7.70
2023-04-29T06:52:32.494Z,7.85
2023-04-29T06:54:59.230Z,7.95
2023-04-29T06:57:25.944Z,7.43
2023-04-29T06:59:53.122Z,8.68
2023-04-29T07:02:20.213Z,7.68
2023-04-29T07:04:47.084Z,8.02
2023-04-29T07:07:13.852Z,7.82
2023-04-29T07:09:40.558Z,7.50
2023-04-29T07:12:07.412Z,7.40
2023-04-29T07:14:34.323Z,7.05
2023-04-29T07:17:01.152Z,7.00
2023-04-29T07:19:27.909Z,7.20
2023-04-29T07:21:54.683Z,6.13
2023-04-29T07:24:23.307Z,6.97
2023-04-29T07:26:50.347Z,7.22
2023-04-29T07:29:17.303Z,6.47
2023-04-29T07:31:44.036Z,6.70
2023-04-29T07:34:10.968Z,6.68
2023-04-29T07:36:37.721Z,6.38
2023-04-29T07:39:05.199Z,7.03
2023-04-29T07:41:32.075Z,6.95
2023-04-29T07:43:58.884Z,6.80
2023-04-29T07:46:25.670Z,6.20
2023-04-29T07:48:53.267Z,6.45
2023-04-29T07:51:20.042Z,6.30
2023-04-29T07:53:46.984Z,6.38
2023-04-29T07:56:14.000Z,5.97
2023-04-29T07:58:40.857Z,6.25
2023-04-29T08:01:09.499Z,5.40
2023-04-29T08:03:39.857Z,5.97
2023-04-29T08:06:08.086Z,5.10
2023-04-29T08:08:35.243Z,4.80
2023-04-29T08:11:02.016Z,4.40
2023-04-29T08:13:28.790Z,4.65
2023-04-29T08:15:55.745Z,4.20
2023-04-29T08:18:22.552Z,4.13
2023-04-29T08:20:49.832Z,4.18
2023-04-29T08:23:16.615Z,4.28
2023-04-29T08:25:44.253Z,3.95
2023-04-29T08:28:11.908Z,4.18
2023-04-29T08:30:41.103Z,4.15
2023-04-29T08:33:08.574Z,3.90
2023-04-29T08:35:39.059Z,4.25
2023-04-29T08:38:06.838Z,3.60
2023-04-29T08:40:41.683Z,3.40
2023-04-29T08:43:12.748Z,3.80
2023-04-29T08:45:40.511Z,4.30
2023-04-29T08:48:08.102Z,3.42
2023-04-29T08:50:42.121Z,4.00
2023-04-29T08:53:10.030Z,4.32
2023-04-29T08:55:43.122Z,3.80
2023-04-29T08:58:11.327Z,3.35
2023-04-29T09:00:38.572Z,3.45
2023-04-29T09:03:20.343Z,3.38
2023-04-29T09:05:53.199Z,2.95
2023-04-29T09:08:22.591Z,3.30
2023-04-29T09:10:50.303Z,2.97
2023-04-29T09:13:24.980Z,3.25
2023-04-29T09:15:51.839Z,3.40
2023-04-29T09:18:46.541Z,3.55
2023-04-29T09:21:24.334Z,3.58
2023-04-29T09:23:54.323Z,3.63
2023-04-29T09:26:22.567Z,3.60
2023-04-29T09:29:10.322Z,3.92
2023-04-29T09:31:40.952Z,4.05
2023-04-29T09:34:08.275Z,3.80
2023-04-29T09:36:51.116Z,3.88
2023-04-29T09:39:22.580Z,3.95
2023-04-29T09:41:55.346Z,3.80
2023-04-29T09:44:23.858Z,4.43
2023-04-29T09:47:07.234Z,4.00
2023-04-29T09:49:37.598Z,4.50
2023-04-29T09:52:12.691Z,4.05
2023-04-29T09:54:41.288Z,4.72
2023-04-29T09:57:09.974Z,4.07
2023-04-29T09:59:39.976Z,4.30
2023-04-29T10:02:21.119Z,3.60
2023-04-29T10:04:54.520Z,4.03
2023-04-29T10:07:22.528Z,4.03
2023-04-29T10:09:49.848Z,3.90
2023-04-29T10:12:18.976Z,3.55
2023-04-29T10:15:05.170Z,3.50
2023-04-29T10:17:44.303Z,3.10
2023-04-29T10:20:15.182Z,3.97
2023-04-29T10:22:49.968Z,3.38
2023-04-29T10:25:18.749Z,3.78
2023-04-29T10:27:46.810Z,3.17
2023-04-29T10:30:15.316Z,3.17
2023-04-29T10:32:50.368Z,3.03
2023-04-29T10:35:20.681Z,3.28
2023-04-29T10:37:51.229Z,3.08
2023-04-29T10:40:25.008Z,3.20
2023-04-29T10:42:53.491Z,3.10
2023-04-29T10:45:37.061Z,3.10
2023-04-29T10:48:14.113Z,3.13
2023-04-29T10:50:46.999Z,3.00
2023-04-29T10:53:15.681Z,3.20
2023-04-29T10:55:43.443Z,2.80
2023-04-29T10:58:39.265Z,2.55
2023-04-29T11:01:08.176Z,2.63
2023-04-29T11:03:48.034Z,3.17
2023-04-29T11:06:16.357Z,3.20
2023-04-29T11:08:43.622Z,3.20
2023-04-29T11:11:10.404Z,3.10
2023-04-29T11:13:41.304Z,2.88
2023-04-29T11:16:12.217Z,3.28
2023-04-29T11:19:17.904Z,3.28
2023-04-29T11:21:46.360Z,2.28
2023-04-29T11:24:15.960Z,2.60
2023-04-29T11:26:43.887Z,2.42
2023-04-29T11:29:13.799Z,2.45
2023-04-29T11:31:40.649Z,2.90
2023-04-29T11:34:08.050Z,2.42
2023-04-29T11:36:36.372Z,2.47
2023-04-29T11:39:04.595Z,2.60
2023-04-29T11:41:32.070Z,2.75
2023-04-29T11:44:00.384Z,2.72
2023-04-29T11:46:31.375Z,2.50
2023-04-29T11:49:00.183Z,2.78
2023-04-29T11:51:27.262Z,2.50
2023-04-29T11:53:54.279Z,2.75
2023-04-29T11:56:25.715Z,2.92
2023-04-29T11:58:58.190Z,2.63
2023-04-29T12:01:26.135Z,2.97
2023-04-29T12:03:58.613Z,3.17
2023-04-29T12:06:29.268Z,2.85
2023-04-29T12:08:58.764Z,3.45
2023-04-29T12:11:27.006Z,2.85
2023-04-29T12:13:55.314Z,3.25
2023-04-29T12:16:24.379Z,3.28
2023-04-29T12:18:53.335Z,2.92
2023-04-29T12:21:20.145Z,2.35
2023-04-29T12:23:47.670Z,2.80
2023-04-29T12:26:15.026Z,2.78
2023-04-29T12:28:42.461Z,2.75
2023-04-29T12:31:11.668Z,2.53
2023-04-29T12:33:38.560Z,2.60
2023-04-29T12:36:16.737Z,2.63
2023-04-29T12:38:43.573Z,2.72
2023-04-29T12:41:11.164Z,2.33
2023-04-29T12:43:38.115Z,2.17
2023-04-29T12:46:06.511Z,2.22
2023-04-29T12:48:34.650Z,2.13
2023-04-29T12:51:02.190Z,1.88
2023-04-29T12:53:32.636Z,2.03
2023-04-29T12:56:00.116Z,1.73
2023-04-29T12:58:30.720Z,2.47
2023-04-29T13:00:58.127Z,2.00
2023-04-29T13:03:25.189Z,1.92
2023-04-29T13:05:54.005Z,2.10
2023-04-29T13:08:21.461Z,1.83
2023-04-29T13:10:48.215Z,2.10
2023-04-29T13:13:15.378Z,2.10
2023-04-29T13:15:42.873Z,1.92
2023-04-29T13:18:09.815Z,1.90
2023-04-29T13:20:41.642Z,2.03
2023-04-29T13:23:10.177Z,2.00
2023-04-29T13:25:36.937Z,2.17
2023-04-29T13:28:05.843Z,1.90
2023-04-29T13:30:33.465Z,2.20
2023-04-29T13:33:08.414Z,2.08
2023-04-29T13:35:40.477Z,2.58
2023-04-29T13:38:08.570Z,2.33
2023-04-29T13:40:39.494Z,2.17
2023-04-29T13:43:13.806Z,2.47
2023-04-29T13:45:45.667Z,2.22
2023-04-29T13:48:32.489Z,2.10
2023-04-29T13:56:54.774Z,2.15
2023-04-29T14:03:53.106Z,1.85
2023-04-29T14:06:20.108Z,2.22
2023-04-29T14:08:46.837Z,2.10
2023-04-29T14:11:13.699Z,2.55
2023-04-29T14:13:40.553Z,1.90
2023-04-29T14:16:07.850Z,2.40
2023-04-29T14:18:34.630Z,2.30
2023-04-29T14:21:01.418Z,1.90
2023-04-29T14:23:28.157Z,2.20
2023-04-29T14:26:02.271Z,2.03
2023-04-29T14:28:38.170Z,1.90
2023-04-29T14:31:05.037Z,2.03
2023-04-29T14:33:31.928Z,1.95
2023-04-29T14:35:59.154Z,1.80
2023-04-29T14:38:26.006Z,1.90
2023-04-29T14:40:53.305Z,2.03
2023-04-29T14:43:20.191Z,2.00
2023-04-29T14:45:47.534Z,2.00
2023-04-29T14:48:14.499Z,2.22
2023-04-29T14:50:41.312Z,2.05
2023-04-29T14:53:09.014Z,2.05
2023-04-29T14:55:35.770Z,2.03
2023-04-29T14:58:05.237Z,2.58
2023-04-29T15:00:32.193Z,2.10
2023-04-29T15:02:59.319Z,2.08
2023-04-29T15:05:26.289Z,2.10
2023-04-29T15:07:53.110Z,2.30
2023-04-29T15:10:19.983Z,1.98
2023-04-29T15:12:46.738Z,1.88
2023-04-29T15:15:13.868Z,2.22
2023-04-29T15:17:41.129Z,2.17
2023-04-29T15:20:08.732Z,2.30
2023-04-29T15:22:35.624Z,2.22
2023-04-29T15:25:02.464Z,1.80
2023-04-29T15:27:29.224Z,1.70
2023-04-29T15:29:57.338Z,2.17
2023-04-29T15:32:31.850Z,2.00
2023-04-29T15:34:59.934Z,1.85
2023-04-29T15:37:28.202Z,2.03
2023-04-29T15:39:55.979Z,1.80
2023-04-29T15:42:22.974Z,1.80
2023-04-29T15:44:49.706Z,1.80
2023-04-29T15:47:16.666Z,1.88
2023-04-29T15:49:43.676Z,1.98
2023-04-29T15:52:10.992Z,1.98
2023-04-29T15:54:37.823Z,1.83
2023-04-29T15:57:04.675Z,1.67
2023-04-29T15:59:32.300Z,1.95
2023-04-29T16:01:59.063Z,2.03
2023-04-29T16:04:25.990Z,2.30
2023-04-29T16:06:53.056Z,1.80
2023-04-29T16:09:19.948Z,2.15
2023-04-29T16:11:46.679Z,2.17
2023-04-29T16:14:13.813Z,2.10
2023-04-29T16:16:41.102Z,2.20
2023-04-29T16:19:08.097Z,2.13
2023-04-29T16:21:34.955Z,1.90
2023-04-29T16:24:01.809Z,1.75
2023-04-29T16:26:28.720Z,2.42
2023-04-29T16:28:55.535Z,1.60
2023-04-29T16:31:23.881Z,1.60
2023-04-29T16:33:50.872Z,1.80
2023-04-29T16:36:17.795Z,1.90
2023-04-29T16:38:44.667Z,1.85
2023-04-29T16:41:11.555Z,2.88
2023-04-29T16:43:38.372Z,2.10
2023-04-29T16:46:05.328Z,1.60
2023-04-29T16:48:32.215Z,2.28
2023-04-29T16:50:59.254Z,1.80
2023-04-29T16:53:26.160Z,2.30
2023-04-29T16:55:52.911Z,2.00
2023-04-29T16:58:19.913Z,2.08
2023-04-29T17:00:47.014Z,2.60
2023-04-29T17:03:14.076Z,2.20
2023-04-29T17:05:41.097Z,2.15
2023-04-29T17:08:08.124Z,2.10
2023-04-29T17:10:35.111Z,2.65
2023-04-29T17:13:01.850Z,2.20
2023-04-29T17:15:29.615Z,2.53
2023-04-29T17:17:56.560Z,2.70
2023-04-29T17:20:23.473Z,2.63
2023-04-29T17:22:50.528Z,3.17
2023-04-29T17:25:18.214Z,3.00
2023-04-29T17:27:46.160Z,3.25
2023-04-29T17:30:13.446Z,3.15
2023-04-29T17:32:40.541Z,3.08
2023-04-29T17:35:09.064Z,3.42
2023-04-29T17:37:36.447Z,3.47
2023-04-29T17:40:04.063Z,3.17
2023-04-29T17:42:30.918Z,3.85
2023-04-29T17:44:57.776Z,4.18
2023-04-29T17:47:24.663Z,3.97
2023-04-29T17:49:52.408Z,4.40
2023-04-29T17:52:21.654Z,5.13
2023-04-29T17:54:51.388Z,5.82
2023-04-29T17:57:18.240Z,6.18
2023-04-29T17:59:45.112Z,6.38
2023-04-29T18:02:12.069Z,6.00
2023-04-29T18:04:40.833Z,6.40
2023-04-29T18:07:07.629Z,6.40
2023-04-29T18:09:35.097Z,6.60
2023-04-29T18:12:02.657Z,6.70
2023-04-29T18:14:30.868Z,6.60
2023-04-29T18:17:01.398Z,6.47
2023-04-29T18:19:28.640Z,6.80
2023-04-29T18:21:58.473Z,7.10
2023-04-29T18:24:26.386Z,6.20
2023-04-29T18:26:53.239Z,5.82
2023-04-29T18:29:21.141Z,5.20
2023-04-29T18:31:48.116Z,5.28
2023-04-29T18:34:15.749Z,5.13
2023-04-29T18:36:42.552Z,5.20
2023-04-29T18:39:09.356Z,4.82
2023-04-29T18:41:36.807Z,5.22
2023-04-29T18:44:03.852Z,4.88
2023-04-29T18:46:30.784Z,4.55
2023-04-29T18:48:57.622Z,4.80
2023-04-29T18:51:24.490Z,5.05
2023-04-29T18:53:51.418Z,4.90
2023-04-29T18:56:18.150Z,5.25
2023-04-29T18:58:45.196Z,5.43
2023-04-29T19:01:11.993Z,5.20
2023-04-29T19:03:39.216Z,4.88
2023-04-29T19:06:06.281Z,5.32
2023-04-29T19:08:33.136Z,5.07
2023-04-29T19:11:00.739Z,5.75
2023-04-29T19:13:28.156Z,4.93
2023-04-29T19:15:55.481Z,5.57
2023-04-29T19:18:23.342Z,5.28
2023-04-29T19:20:50.610Z,5.35
2023-04-29T19:23:17.479Z,4.50
2023-04-29T19:25:44.333Z,5.13
2023-04-29T19:28:11.122Z,5.00
2023-04-29T19:30:38.367Z,5.03
2023-04-29T19:33:05.139Z,5.75
2023-04-29T19:35:31.950Z,5.40
2023-04-29T19:37:58.780Z,5.28
2023-04-29T19:40:25.641Z,5.22
2023-04-29T19:42:52.386Z,5.88
2023-04-29T19:45:19.237Z,5.50
2023-04-29T19:47:46.549Z,5.60
2023-04-29T19:50:13.362Z,5.50
2023-04-29T19:52:40.210Z,6.57
2023-04-29T19:55:09.077Z,5.55
2023-04-29T19:57:36.178Z,5.30
2023-04-29T20:00:04.823Z,6.03
2023-04-29T20:02:33.172Z,5.80
2023-04-29T20:05:00.076Z,5.68
2023-04-29T20:07:27.267Z,5.53
2023-04-29T20:09:54.785Z,6.05
2023-04-29T20:12:21.770Z,5.65
2023-04-29T20:14:48.830Z,6.18
2023-04-29T20:17:17.979Z,5.80
2023-04-29T20:19:45.114Z,6.35
2023-04-29T20:22:11.903Z,5.72
2023-04-29T20:24:38.657Z,5.60
2023-04-29T20:27:05.865Z,5.75
2023-04-29T20:29:32.857Z,6.85
2023-04-29T20:31:59.787Z,7.05
2023-04-29T20:34:26.740Z,6.78
2023-04-29T20:36:53.537Z,6.60
2023-04-29T20:39:20.535Z,6.28
2023-04-29T20:41:47.277Z,6.93
2023-04-29T20:44:14.013Z,6.70
2023-04-29T20:46:41.570Z,6.43
2023-04-29T20:49:08.459Z,6.53
2023-04-29T20:51:35.224Z,7.05
2023-04-29T20:54:02.024Z,6.35
2023-04-29T20:56:28.960Z,6.15
2023-04-29T20:58:57.801Z,6.57
2023-04-29T21:01:25.042Z,6.00
2023-04-29T21:03:52.584Z,6.40
2023-04-29T21:06:19.794Z,6.65
2023-04-29T21:08:46.728Z,6.30
2023-04-29T21:11:13.509Z,7.63
2023-04-29T21:13:40.273Z,7.50
2023-04-29T21:16:07.260Z,7.00
2023-04-29T21:18:34.096Z,7.13
2023-04-29T21:21:00.960Z,7.60
2023-04-29T21:23:27.774Z,6.60
2023-04-29T21:25:54.537Z,7.28
2023-04-29T21:28:21.323Z,6.70
2023-04-29T21:30:48.097Z,7.40
2023-04-29T21:33:14.948Z,7.60
2023-04-29T21:35:43.417Z,6.85
2023-04-29T21:38:12.522Z,7.03
2023-04-29T21:40:42.126Z,7.38
2023-04-29T21:43:10.588Z,7.47
2023-04-29T21:45:38.267Z,6.88
2023-04-29T21:48:15.246Z,7.18
2023-04-29T21:50:42.956Z,7.10
2023-04-29T21:53:10.131Z,6.78
2023-04-29T21:55:37.810Z,7.32
2023-04-29T21:58:05.327Z,7.97
2023-04-29T22:00:41.291Z,7.80
2023-04-29T22:03:09.364Z,7.55
2023-04-29T22:05:37.045Z,7.75
2023-04-29T22:08:07.619Z,7.60
2023-04-29T22:10:34.636Z,7.85
2023-04-29T22:13:01.367Z,7.63
2023-04-29T22:15:29.475Z,8.70
2023-04-29T22:17:57.725Z,8.40
2023-04-29T22:20:25.592Z,8.52
2023-04-29T22:22:52.907Z,8.18
2023-04-29T22:25:22.984Z,8.55
2023-04-29T22:27:50.341Z,8.38
2023-04-29T22:30:18.182Z,8.85
2023-04-29T22:32:45.497Z,8.93
2023-04-29T22:35:12.590Z,8.68
2023-04-29T22:37:39.388Z,8.98
2023-04-29T22:40:06.842Z,9.50
2023-04-29T22:42:33.626Z,9.70
2023-04-29T22:45:00.587Z,9.80
2023-04-29T22:47:27.411Z,10.48
2023-04-29T22:49:54.490Z,9.52
2023-04-29T22:52:21.637Z,9.38
2023-04-29T22:54:48.414Z,8.90
2023-04-29T22:57:15.185Z,9.88
2023-04-29T22:59:41.988Z,9.90
2023-04-29T23:02:08.798Z,9.98
2023-04-29T23:04:35.738Z,10.32
2023-04-29T23:07:02.601Z,9.57
2023-04-29T23:09:29.369Z,9.63
2023-04-29T23:11:56.305Z,9.93
2023-04-29T23:14:23.161Z,10.02
2023-04-29T23:16:51.295Z,9.95
2023-04-29T23:19:18.174Z,9.90
2023-04-29T23:21:45.048Z,10.27
2023-04-29T23:24:11.858Z,10.18
2023-04-29T23:26:38.582Z,10.55
2023-04-29T23:29:05.345Z,9.90
2023-04-29T23:31:32.155Z,10.98
2023-04-29T23:33:59.811Z,10.00
2023-04-29T23:36:26.690Z,10.27
2023-04-29T23:38:53.935Z,9.98
2023-04-29T23:41:21.064Z,11.60
2023-04-29T23:43:47.881Z,10.68
2023-04-29T23:46:14.735Z,10.15
2023-04-29T23:48:41.544Z,9.75
2023-04-29T23:51:08.410Z,10.75
2023-04-29T23:53:35.533Z,10.50
2023-04-29T23:56:02.343Z,10.38
2023-04-29T23:58:29.099Z,11.05
